createdAt,value
2023-05-05T00:02:13.090Z,71.36
2023-05-05T00:05:27.990Z,70.86
2023-05-05T00:08:37.001Z,71.84
2023-05-05T00:11:53.016Z,71.40
2023-05-05T00:15:00.990Z,71.60
2023-05-05T00:18:16.987Z,71.90
2023-05-05T00:21:18.889Z,72.32
2023-05-05T00:24:34.004Z,72.88
2023-05-05T00:27:41.981Z,73.06
2023-05-05T00:30:57.081Z,74.14
2023-05-05T00:33:59.776Z,75.19
2023-05-05T00:37:22.052Z,75.44
2023-05-05T00:40:24.025Z,76.18
2023-05-05T00:43:40.013Z,75.75
2023-05-05T00:46:48.366Z,76.69
2023-05-05T00:50:03.077Z,77.04
2023-05-05T00:53:06.848Z,77.47
2023-05-05T00:56:27.008Z,78.09
2023-05-05T00:59:37.995Z,78.08
2023-05-05T01:02:53.167Z,78.95
2023-05-05T01:06:31.006Z,80.39
2023-05-05T01:10:19.637Z,81.53
2023-05-05T01:13:43.990Z,81.27
2023-05-05T01:17:07.019Z,82.08
2023-05-05T01:20:30.017Z,82.86
2023-05-05T01:23:54.043Z,82.76
2023-05-05T01:27:27.048Z,83.39
2023-05-05T01:30:56.013Z,84.37
2023-05-05T01:34:15.187Z,84.96
2023-05-05T01:37:35.730Z,85.37
2023-05-05T01:40:59.014Z,85.28
2023-05-05T01:44:16.998Z,86.26
2023-05-05T01:47:27.899Z,86.92
2023-05-05T01:50:43.981Z,86.93
2023-05-05T01:53:53.043Z,87.08
2023-05-05T01:57:03.256Z,87.32
2023-05-05T02:00:19.019Z,87.70
2023-05-05T02:03:30.429Z,88.47
2023-05-05T02:06:46.999Z,88.36
2023-05-05T02:09:56.736Z,89.03
2023-05-05T02:13:09.097Z,89.46
2023-05-05T02:16:19.700Z,89.48
2023-05-05T02:19:34.041Z,89.25
2023-05-05T02:22:49.020Z,90.35
2023-05-05T02:26:02.018Z,90.58
2023-05-05T02:29:25.017Z,90.65
2023-05-05T02:32:51.036Z,90.43
2023-05-05T02:35:55.158Z,91.50
2023-05-05T02:39:20.021Z,91.97
2023-05-05T02:42:39.052Z,92.18
2023-05-05T02:45:47.031Z,92.61
2023-05-05T02:49:02.027Z,92.98
2023-05-05T02:52:04.590Z,92.80
2023-05-05T02:55:20.048Z,93.12
2023-05-05T02:58:29.480Z,93.42
2023-05-05T03:02:10.036Z,93.35
2023-05-05T03:05:28.035Z,93.59
2023-05-05T03:09:14.220Z,93.84
2023-05-05T03:12:27.006Z,93.82
2023-05-05T03:15:47.005Z,93.41
2023-05-05T03:19:04.006Z,93.90
2023-05-05T03:22:12.938Z,94.45
2023-05-05T03:25:28.023Z,93.86
2023-05-05T03:28:36.849Z,93.33
2023-05-05T03:31:52.040Z,92.65
2023-05-05T03:34:59.987Z,91.96
2023-05-05T03:38:08.520Z,93.24
2023-05-05T03:41:17.000Z,93.00
2023-05-05T03:44:32.029Z,92.23
2023-05-05T03:47:40.286Z,90.93
2023-05-05T03:50:55.023Z,92.06
2023-05-05T03:54:04.033Z,91.96
2023-05-05T03:57:12.588Z,91.43
2023-05-05T04:00:27.019Z,92.23
2023-05-05T04:03:28.959Z,93.16
2023-05-05T04:06:44.029Z,93.75
2023-05-05T04:09:52.988Z,93.17
2023-05-05T04:13:01.060Z,92.70
2023-05-05T04:16:16.052Z,92.24
2023-05-05T04:19:24.674Z,91.80
2023-05-05T04:22:39.025Z,91.05
2023-05-05T04:25:47.768Z,91.05
2023-05-05T04:29:03.031Z,90.37
2023-05-05T04:32:12.024Z,88.97
2023-05-05T04:35:28.016Z,89.20
2023-05-05T04:38:42.079Z,89.47
2023-05-05T04:41:57.003Z,89.75
2023-05-05T04:44:58.858Z,89.57
2023-05-05T04:48:20.994Z,88.36
2023-05-05T04:51:31.006Z,88.90
2023-05-05T04:54:42.019Z,87.07
2023-05-05T04:57:57.033Z,87.94
2023-05-05T05:01:06.001Z,88.02
2023-05-05T05:04:21.012Z,87.93
2023-05-05T05:07:36.014Z,88.67
2023-05-05T05:10:45.117Z,88.50
2023-05-05T05:13:54.016Z,87.26
2023-05-05T05:17:02.577Z,87.10
2023-05-05T05:20:17.998Z,87.61
2023-05-05T05:23:26.576Z,88.52
2023-05-05T05:26:35.023Z,87.48
2023-05-05T05:29:43.636Z,85.02
2023-05-05T05:32:52.027Z,83.62
2023-05-05T05:36:00.530Z,82.95
2023-05-05T05:39:15.013Z,82.33
2023-05-05T05:42:17.012Z,81.23
2023-05-05T05:45:32.014Z,78.09
2023-05-05T05:48:40.050Z,77.28
2023-05-05T05:51:48.609Z,77.38
2023-05-05T05:55:04.027Z,78.75
2023-05-05T05:58:05.917Z,78.03
2023-05-05T06:01:22.050Z,75.40
2023-05-05T06:04:31.136Z,74.52
2023-05-05T06:07:40.065Z,73.93
2023-05-05T06:10:55.041Z,72.55
2023-05-05T06:13:57.023Z,70.96
2023-05-05T06:17:12.028Z,70.87
2023-05-05T06:20:21.579Z,70.62
2023-05-05T06:23:36.127Z,70.54
2023-05-05T06:26:45.021Z,70.67
2023-05-05T06:30:00.058Z,69.22
2023-05-05T06:33:08.056Z,69.71
2023-05-05T06:36:16.676Z,68.54
2023-05-05T06:39:25.054Z,68.95
2023-05-05T06:42:33.769Z,67.70
2023-05-05T06:45:49.053Z,68.66
2023-05-05T06:49:04.008Z,67.58
2023-05-05T06:52:13.015Z,68.41
2023-05-05T06:55:28.142Z,67.40
2023-05-05T06:58:36.693Z,69.16
2023-05-05T07:01:45.075Z,66.08
2023-05-05T07:04:53.707Z,65.77
2023-05-05T07:08:08.033Z,66.50
2023-05-05T07:11:10.205Z,65.00
2023-05-05T07:14:25.062Z,64.93
2023-05-05T07:17:33.027Z,62.64
2023-05-05T07:20:41.759Z,62.24
2023-05-05T07:23:50.056Z,62.69
2023-05-05T07:26:58.845Z,59.71
2023-05-05T07:30:11.219Z,59.77
2023-05-05T07:33:27.029Z,61.02
2023-05-05T07:36:35.714Z,60.46
2023-05-05T07:39:48.099Z,58.48
2023-05-05T07:42:57.028Z,57.12
2023-05-05T07:46:06.414Z,57.42
2023-05-05T07:49:24.088Z,58.17
2023-05-05T07:52:45.249Z,56.73
2023-05-05T07:56:05.092Z,57.50
2023-05-05T07:59:07.080Z,55.66
2023-05-05T08:02:22.187Z,56.99
2023-05-05T08:05:30.676Z,57.10
2023-05-05T08:08:39.015Z,55.12
2023-05-05T08:11:55.086Z,53.92
2023-05-05T08:14:57.029Z,52.99
2023-05-05T08:18:12.110Z,53.71
2023-05-05T08:21:20.771Z,52.92
2023-05-05T08:24:36.068Z,54.22
2023-05-05T08:27:44.846Z,52.43
2023-05-05T08:30:54.268Z,52.62
2023-05-05T08:34:07.159Z,51.85
2023-05-05T08:37:22.088Z,50.25
2023-05-05T08:40:40.070Z,49.35
2023-05-05T08:43:56.104Z,49.86
2023-05-05T08:47:05.834Z,48.72
2023-05-05T08:50:24.105Z,49.18
2023-05-05T08:53:45.329Z,49.18
2023-05-05T08:57:05.042Z,48.62
2023-05-05T09:00:14.247Z,47.87
2023-05-05T09:03:23.105Z,48.83
2023-05-05T09:06:31.959Z,47.45
2023-05-05T09:09:41.046Z,49.02
2023-05-05T09:12:49.766Z,49.85
2023-05-05T09:15:58.002Z,49.33
2023-05-05T09:19:06.670Z,49.21
2023-05-05T09:22:15.090Z,47.41
2023-05-05T09:25:31.240Z,47.45
2023-05-05T09:28:54.203Z,46.02
2023-05-05T09:32:10.067Z,45.90
2023-05-05T09:35:26.536Z,46.69
2023-05-05T09:38:35.074Z,46.38
2023-05-05T09:41:44.031Z,46.30
2023-05-05T09:44:52.089Z,45.53
2023-05-05T09:48:14.080Z,43.72
2023-05-05T09:51:16.134Z,44.68
2023-05-05T09:54:33.159Z,45.17
2023-05-05T09:57:41.688Z,45.26
2023-05-05T10:00:57.045Z,44.10
2023-05-05T10:04:05.087Z,43.13
2023-05-05T10:07:30.074Z,42.22
2023-05-05T10:10:59.650Z,42.67
2023-05-05T10:14:14.101Z,43.62
2023-05-05T10:17:23.112Z,44.11
2023-05-05T10:20:33.515Z,45.00
2023-05-05T10:23:55.076Z,44.53
2023-05-05T10:26:58.657Z,44.43
2023-05-05T10:30:14.149Z,43.61
2023-05-05T10:36:51.764Z,41.42
2023-05-05T10:40:09.348Z,43.32
2023-05-05T10:43:20.070Z,43.47
2023-05-05T10:46:36.183Z,43.85
2023-05-05T10:50:04.069Z,41.96
2023-05-05T10:53:37.166Z,41.74
2023-05-05T10:56:54.084Z,42.89
2023-05-05T11:00:02.104Z,43.95
2023-05-05T11:03:17.081Z,43.27
2023-05-05T11:06:25.127Z,43.74
2023-05-05T11:09:34.516Z,44.71
2023-05-05T11:13:01.169Z,44.48
2023-05-05T11:16:46.599Z,44.54
2023-05-05T11:19:55.089Z,45.43
2023-05-05T11:23:10.109Z,45.86
2023-05-05T11:26:20.105Z,41.58
2023-05-05T11:30:03.715Z,45.46
2023-05-05T11:33:32.115Z,44.61
2023-05-05T11:36:40.911Z,44.04
2023-05-05T11:40:26.130Z,45.95
2023-05-05T11:43:28.116Z,43.67
2023-05-05T11:47:00.568Z,40.80
2023-05-05T11:50:19.912Z,41.89
2023-05-05T11:53:36.097Z,42.26
2023-05-05T11:56:51.793Z,41.92
2023-05-05T12:00:11.310Z,41.74
2023-05-05T12:03:27.276Z,39.53
2023-05-05T12:06:32.646Z,39.17
2023-05-05T12:09:50.119Z,38.58
2023-05-05T12:12:58.801Z,39.54
2023-05-05T12:16:17.179Z,38.88
2023-05-05T12:19:25.688Z,40.25
2023-05-05T12:22:34.102Z,41.39
2023-05-05T12:25:49.173Z,39.52
2023-05-05T12:29:08.106Z,39.22
2023-05-05T12:32:21.704Z,39.16
2023-05-05T12:35:37.101Z,39.70
2023-05-05T12:38:39.043Z,39.58
2023-05-05T12:41:54.094Z,38.59
2023-05-05T12:45:02.129Z,40.77
2023-05-05T12:48:26.180Z,39.33
2023-05-05T12:51:42.122Z,39.97
2023-05-05T12:54:57.808Z,40.13
2023-05-05T12:58:13.104Z,39.29
2023-05-05T13:01:15.045Z,38.04
2023-05-05T13:04:34.148Z,39.72
2023-05-05T13:07:43.117Z,39.13
2023-05-05T13:10:58.177Z,39.00
2023-05-05T13:14:14.109Z,38.77
2023-05-05T13:17:16.026Z,39.76
2023-05-05T13:20:31.102Z,39.79
2023-05-05T13:23:33.253Z,39.18
2023-05-05T13:26:48.152Z,38.72
2023-05-05T13:30:03.157Z,39.75
2023-05-05T13:33:05.633Z,38.94
2023-05-05T13:36:20.139Z,38.80
2023-05-05T13:39:29.169Z,38.76
2023-05-05T13:42:44.201Z,39.81
2023-05-05T13:45:46.413Z,38.66
2023-05-05T13:49:08.121Z,39.36
2023-05-05T13:52:23.169Z,38.68
2023-05-05T13:55:30.938Z,38.36
2023-05-05T13:58:46.193Z,38.66
2023-05-05T14:02:01.177Z,38.48
2023-05-05T14:05:10.301Z,38.45
2023-05-05T14:08:18.736Z,39.06
2023-05-05T14:11:27.136Z,39.04
2023-05-05T14:14:35.676Z,39.57
2023-05-05T14:17:50.161Z,39.88
2023-05-05T14:20:58.797Z,39.77
2023-05-05T14:24:13.148Z,40.13
2023-05-05T14:27:21.150Z,39.47
2023-05-05T14:30:36.175Z,38.99
2023-05-05T14:33:44.896Z,38.88
2023-05-05T14:36:53.195Z,38.08
2023-05-05T14:40:08.154Z,38.70
2023-05-05T14:43:10.153Z,38.43
2023-05-05T14:46:25.231Z,40.04
2023-05-05T14:49:47.155Z,39.55
2023-05-05T14:53:02.131Z,38.77
2023-05-05T14:56:17.166Z,39.18
2023-05-05T14:59:32.129Z,39.02
2023-05-05T15:02:34.211Z,39.38
2023-05-05T15:05:50.184Z,37.38
2023-05-05T15:08:58.756Z,39.54
2023-05-05T15:12:07.161Z,38.68
2023-05-05T15:15:15.838Z,39.78
2023-05-05T15:18:30.155Z,38.74
2023-05-05T15:21:31.978Z,39.14
2023-05-05T15:24:49.197Z,39.58
2023-05-05T15:27:57.177Z,39.91
2023-05-05T15:31:12.193Z,39.91
2023-05-05T15:34:14.298Z,39.49
2023-05-05T15:37:30.174Z,39.02
2023-05-05T15:40:32.039Z,39.52
2023-05-05T15:43:47.143Z,40.24
2023-05-05T15:46:55.206Z,39.67
2023-05-05T15:50:17.155Z,40.13
2023-05-05T15:53:25.642Z,39.04
2023-05-05T15:56:40.156Z,40.79
2023-05-05T15:59:48.166Z,39.55
2023-05-05T16:03:03.261Z,40.02
2023-05-05T16:06:05.482Z,40.12
2023-05-05T16:09:20.173Z,40.62
2023-05-05T16:12:35.184Z,40.86
2023-05-05T16:15:37.037Z,41.23
2023-05-05T16:18:52.180Z,41.03
2023-05-05T16:21:54.836Z,40.35
2023-05-05T16:25:09.419Z,40.29
2023-05-05T16:28:11.538Z,40.05
2023-05-05T16:31:26.153Z,40.28
2023-05-05T16:34:34.935Z,41.10
2023-05-05T16:37:43.186Z,40.74
2023-05-05T16:40:51.818Z,42.38
2023-05-05T16:44:00.181Z,43.35
2023-05-05T16:47:15.213Z,41.93
2023-05-05T16:50:30.457Z,44.76
2023-05-05T16:57:00.183Z,45.00
2023-05-05T17:00:16.202Z,45.49
2023-05-05T17:03:31.184Z,44.58
2023-05-05T17:06:33.290Z,45.69
2023-05-05T17:09:48.229Z,46.35
2023-05-05T17:13:03.241Z,46.63
2023-05-05T17:16:11.700Z,48.28
2023-05-05T17:19:26.177Z,48.09
2023-05-05T17:22:34.994Z,48.78
2023-05-05T17:25:43.239Z,49.51
2023-05-05T17:28:58.172Z,50.25
2023-05-05T17:32:00.262Z,51.50
2023-05-05T17:35:15.178Z,52.76
2023-05-05T17:38:17.073Z,52.50
2023-05-05T17:41:32.178Z,52.31
2023-05-05T17:44:47.682Z,52.84
2023-05-05T17:48:09.178Z,54.04
2023-05-05T17:51:24.178Z,54.54
2023-05-05T17:54:32.802Z,55.39
2023-05-05T17:57:47.243Z,56.63
2023-05-05T18:00:49.355Z,57.50
2023-05-05T18:04:04.191Z,58.06
2023-05-05T18:07:12.222Z,59.07
2023-05-05T18:10:27.230Z,59.03
2023-05-05T18:13:35.822Z,59.86
2023-05-05T18:16:44.287Z,59.70
2023-05-05T18:19:52.779Z,60.44
2023-05-05T18:23:07.200Z,60.12
2023-05-05T18:26:09.157Z,61.24
2023-05-05T18:29:25.228Z,60.92
2023-05-05T18:32:33.215Z,61.90
2023-05-05T18:35:48.241Z,63.34
2023-05-05T18:38:56.246Z,64.17
2023-05-05T18:42:11.213Z,64.06
2023-05-05T18:45:20.029Z,64.75
2023-05-05T18:48:36.202Z,65.12
2023-05-05T18:51:44.835Z,65.97
2023-05-05T18:54:53.232Z,65.87
2023-05-05T18:58:01.855Z,67.04
2023-05-05T19:01:16.309Z,67.72
2023-05-05T19:04:31.926Z,68.79
2023-05-05T19:07:35.603Z,69.41
2023-05-05T19:10:51.224Z,69.66
2023-05-05T19:14:00.224Z,69.91
2023-05-05T19:17:15.199Z,69.49
2023-05-05T19:20:17.070Z,70.35
2023-05-05T19:23:32.229Z,71.63
2023-05-05T19:26:40.697Z,72.34
2023-05-05T19:29:49.228Z,72.91
2023-05-05T19:33:04.288Z,73.06
2023-05-05T19:36:13.269Z,73.43
2023-05-05T19:39:21.860Z,73.82
2023-05-05T19:42:36.211Z,74.55
2023-05-05T19:45:38.104Z,75.49
2023-05-05T19:48:53.214Z,75.44
2023-05-05T19:51:55.619Z,75.73
2023-05-05T19:55:11.204Z,76.49
2023-05-05T19:58:26.217Z,77.53
2023-05-05T20:01:29.121Z,77.97
2023-05-05T20:04:44.197Z,78.46
2023-05-05T20:07:46.205Z,78.92
2023-05-05T20:11:01.207Z,78.16
2023-05-05T20:14:09.228Z,79.27
2023-05-05T20:17:17.785Z,79.71
2023-05-05T20:20:32.225Z,80.75
2023-05-05T20:23:40.866Z,81.09
2023-05-05T20:26:55.223Z,81.55
2023-05-05T20:29:57.279Z,82.22
2023-05-05T20:33:12.231Z,82.70
2023-05-05T20:36:27.235Z,81.93
2023-05-05T20:39:29.205Z,83.60
2023-05-05T20:42:44.240Z,83.76
2023-05-05T20:45:52.242Z,83.58
2023-05-05T20:49:07.220Z,84.59
2023-05-05T20:52:16.040Z,84.71
2023-05-05T20:55:24.237Z,85.24
2023-05-05T20:58:32.793Z,85.47
2023-05-05T21:01:41.264Z,86.20
2023-05-05T21:04:56.188Z,86.18
2023-05-05T21:08:04.210Z,86.35
2023-05-05T21:11:19.235Z,87.01
2023-05-05T21:14:21.375Z,87.03
2023-05-05T21:17:36.246Z,87.10
2023-05-05T21:20:44.231Z,87.55
2023-05-05T21:23:59.200Z,88.46
2023-05-05T21:27:14.230Z,88.42
2023-05-05T21:30:17.013Z,88.84
2023-05-05T21:33:32.233Z,88.67
2023-05-05T21:36:40.294Z,88.74
2023-05-05T21:39:48.987Z,89.24
2023-05-05T21:43:04.213Z,90.07
2023-05-05T21:46:12.285Z,90.27
2023-05-05T21:49:20.756Z,90.11
2023-05-05T21:52:35.284Z,89.81
2023-05-05T21:55:37.159Z,90.45
2023-05-05T21:58:52.253Z,90.76
2023-05-05T22:02:01.375Z,91.12
2023-05-05T22:05:10.231Z,91.23
2023-05-05T22:08:19.581Z,91.73
2023-05-05T22:11:28.251Z,92.15
2023-05-05T22:14:37.009Z,92.21
2023-05-05T22:17:45.238Z,92.18
2023-05-05T22:21:00.247Z,92.48
2023-05-05T22:24:15.227Z,92.97
2023-05-05T22:27:23.223Z,92.79
2023-05-05T22:30:31.908Z,93.02
2023-05-05T22:33:46.246Z,92.95
2023-05-05T22:36:54.790Z,92.57
2023-05-05T22:40:03.247Z,92.88
2023-05-05T22:43:18.220Z,93.60
2023-05-05T22:46:20.137Z,94.17
2023-05-05T22:49:42.314Z,93.12
2023-05-05T22:52:44.318Z,92.75
2023-05-05T22:55:59.263Z,91.81
2023-05-05T22:59:08.286Z,91.92
2023-05-05T23:02:23.272Z,91.92
2023-05-05T23:05:32.238Z,91.72
2023-05-05T23:08:47.234Z,92.80
2023-05-05T23:11:56.202Z,92.98
2023-05-05T23:15:04.227Z,92.44
2023-05-05T23:18:12.837Z,92.80
2023-05-05T23:21:29.219Z,93.15
2023-05-05T23:24:38.220Z,93.54
2023-05-05T23:27:53.225Z,93.84
2023-05-05T23:31:02.314Z,93.54
2023-05-05T23:34:10.994Z,94.30
2023-05-05T23:37:20.263Z,93.77
2023-05-05T23:40:28.817Z,93.25
2023-05-05T23:43:37.273Z,92.48
2023-05-05T23:46:52.246Z,92.28
2023-05-05T23:50:08.227Z,93.02
2023-05-05T23:53:16.213Z,92.89
2023-05-05T23:56:25.080Z,93.30
2023-05-05T23:59:33.219Z,92.87
